createdAt,value
2023-01-13T00:01:30.973Z,55.92
2023-01-13T00:03:59.797Z,47.67
2023-01-13T00:06:28.637Z,52.55
2023-01-13T00:08:57.533Z,49.38
2023-01-13T00:11:29.869Z,60.38
2023-01-13T00:13:58.796Z,54.03
2023-01-13T00:16:27.673Z,53.47
2023-01-13T00:18:56.377Z,52.17
2023-01-13T00:21:25.556Z,54.05
2023-01-13T00:23:55.491Z,55.55
2023-01-13T00:26:32.012Z,53.22
2023-01-13T00:29:01.536Z,50.38
2023-01-13T00:31:31.169Z,55.70
2023-01-13T00:34:01.130Z,45.63
2023-01-13T00:36:30.775Z,53.10
2023-01-13T00:39:00.024Z,48.45
2023-01-13T00:41:29.545Z,43.97
2023-01-13T00:43:58.206Z,50.90
2023-01-13T00:46:26.772Z,48.95
2023-01-13T00:48:55.741Z,52.47
2023-01-13T00:51:24.165Z,48.33
2023-01-13T00:53:53.760Z,53.75
2023-01-13T00:56:40.967Z,47.92
2023-01-13T00:59:13.022Z,44.17
2023-01-13T01:01:42.587Z,59.05
2023-01-13T01:04:13.610Z,50.03
2023-01-13T01:06:42.469Z,53.40
2023-01-13T01:09:15.304Z,47.97
2023-01-13T01:11:44.735Z,51.95
2023-01-13T01:14:16.418Z,52.28
2023-01-13T01:16:45.264Z,46.65
2023-01-13T01:19:15.169Z,48.05
2023-01-13T01:21:43.792Z,59.65
2023-01-13T01:24:12.768Z,51.80
2023-01-13T01:26:44.472Z,53.38
2023-01-13T01:29:17.735Z,52.33
2023-01-13T01:31:49.396Z,53.88
2023-01-13T01:34:20.293Z,59.67
2023-01-13T01:36:49.031Z,56.90
2023-01-13T01:39:17.197Z,56.00
2023-01-13T01:42:06.130Z,54.45
2023-01-13T01:44:46.103Z,53.30
2023-01-13T01:47:18.349Z,52.08
2023-01-13T01:49:48.776Z,58.63
2023-01-13T01:52:21.175Z,65.72
2023-01-13T01:55:04.548Z,54.15
2023-01-13T01:57:46.433Z,53.97
2023-01-13T02:00:19.016Z,54.47
2023-01-13T02:02:52.239Z,53.42
2023-01-13T02:05:22.269Z,48.60
2023-01-13T02:07:53.399Z,53.78
2023-01-13T02:10:24.664Z,50.00
2023-01-13T02:12:53.694Z,49.10
2023-01-13T02:15:32.468Z,51.10
2023-01-13T02:18:10.025Z,58.42
2023-01-13T02:20:56.633Z,51.88
2023-01-13T02:23:55.489Z,49.30
2023-01-13T02:26:41.359Z,41.88
2023-01-13T02:29:58.606Z,47.20
2023-01-13T02:32:27.390Z,53.88
2023-01-13T02:35:22.706Z,46.45
2023-01-13T02:37:52.033Z,47.55
2023-01-13T02:40:32.988Z,46.35
2023-01-13T02:43:32.073Z,47.90
2023-01-13T02:46:09.842Z,48.15
2023-01-13T02:48:40.047Z,48.45
2023-01-13T02:51:11.916Z,40.90
2023-01-13T02:53:44.532Z,44.08
2023-01-13T02:56:14.467Z,39.97
2023-01-13T02:58:44.754Z,34.72
2023-01-13T03:01:13.466Z,38.05
2023-01-13T03:03:41.917Z,38.63
2023-01-13T03:06:27.899Z,43.83
2023-01-13T03:09:13.789Z,41.08
2023-01-13T03:12:12.608Z,38.92
2023-01-13T03:14:46.660Z,40.95
2023-01-13T03:17:43.643Z,36.70
2023-01-13T03:20:20.272Z,40.55
2023-01-13T03:23:09.900Z,39.97
2023-01-13T03:25:57.133Z,29.90
2023-01-13T03:28:31.652Z,33.15
2023-01-13T03:31:05.418Z,33.63
2023-01-13T03:33:40.886Z,31.50
2023-01-13T03:36:10.998Z,35.83
2023-01-13T03:38:44.128Z,35.05
2023-01-13T03:41:21.643Z,36.03
2023-01-13T03:44:22.992Z,35.05
2023-01-13T03:46:54.533Z,42.80
2023-01-13T03:49:26.524Z,37.25
2023-01-13T03:52:00.569Z,40.80
2023-01-13T03:54:32.147Z,35.83
2023-01-13T03:57:10.463Z,30.98
2023-01-13T03:59:43.546Z,40.00
2023-01-13T04:02:27.804Z,36.28
2023-01-13T04:05:05.666Z,42.35
2023-01-13T04:07:52.581Z,39.85
2023-01-13T04:10:27.835Z,36.13
2023-01-13T04:13:08.270Z,41.92
2023-01-13T04:15:42.898Z,36.45
2023-01-13T04:18:17.967Z,35.58
2023-01-13T04:20:48.541Z,40.90
2023-01-13T04:23:18.515Z,38.40
2023-01-13T04:25:48.143Z,33.50
2023-01-13T04:28:18.094Z,41.10
2023-01-13T04:30:46.733Z,45.30
2023-01-13T04:33:16.477Z,41.03
2023-01-13T04:35:46.312Z,40.33
2023-01-13T04:38:16.308Z,32.22
2023-01-13T04:40:45.375Z,36.10
2023-01-13T04:43:14.529Z,34.80
2023-01-13T04:45:43.590Z,37.08
2023-01-13T04:48:12.417Z,38.67
2023-01-13T04:50:41.191Z,40.25
2023-01-13T04:53:09.777Z,38.67
2023-01-13T04:55:38.449Z,36.53
2023-01-13T04:58:11.669Z,50.10
2023-01-13T05:00:40.188Z,37.30
2023-01-13T05:03:09.076Z,42.42
2023-01-13T05:05:37.726Z,44.80
2023-01-13T05:08:06.825Z,43.90
2023-01-13T05:10:35.478Z,41.92
2023-01-13T05:13:22.421Z,37.08
2023-01-13T05:16:11.150Z,44.08
2023-01-13T05:18:39.652Z,39.63
2023-01-13T05:21:28.168Z,42.83
2023-01-13T05:24:15.335Z,33.80
2023-01-13T05:26:44.157Z,44.45
2023-01-13T05:29:12.820Z,37.95
2023-01-13T05:31:41.090Z,48.25
2023-01-13T05:34:09.648Z,42.03
2023-01-13T05:36:38.438Z,41.70
2023-01-13T05:39:07.242Z,42.90
2023-01-13T05:41:54.919Z,40.38
2023-01-13T05:44:23.219Z,44.60
2023-01-13T05:46:51.885Z,51.55
2023-01-13T05:49:20.527Z,44.22
2023-01-13T05:51:49.107Z,41.97
2023-01-13T05:54:17.723Z,45.05
2023-01-13T05:56:46.325Z,45.58
2023-01-13T05:59:14.999Z,49.30
2023-01-13T06:01:43.551Z,44.30
2023-01-13T06:04:12.325Z,41.60
2023-01-13T06:06:41.172Z,48.00
2023-01-13T06:09:09.315Z,46.53
2023-01-13T06:11:37.900Z,41.13
2023-01-13T06:14:06.183Z,42.92
2023-01-13T06:16:34.827Z,39.33
2023-01-13T06:19:03.416Z,43.60
2023-01-13T06:21:33.304Z,45.25
2023-01-13T06:24:01.815Z,49.75
2023-01-13T06:26:32.659Z,38.22
2023-01-13T06:29:01.236Z,46.47
2023-01-13T06:31:32.621Z,46.05
2023-01-13T06:34:07.443Z,44.75
2023-01-13T06:36:43.114Z,43.28
2023-01-13T06:39:12.726Z,44.35
2023-01-13T06:42:00.666Z,42.25
2023-01-13T06:44:29.310Z,38.40
2023-01-13T06:46:58.001Z,40.13
2023-01-13T06:49:26.954Z,44.72
2023-01-13T06:51:55.613Z,33.55
2023-01-13T06:54:24.369Z,38.03
2023-01-13T06:56:53.446Z,39.10
2023-01-13T06:59:21.984Z,41.47
2023-01-13T07:01:50.352Z,37.42
2023-01-13T07:04:19.898Z,47.42
2023-01-13T07:06:48.548Z,41.00
2023-01-13T07:09:16.775Z,41.85
2023-01-13T07:11:45.091Z,42.10
2023-01-13T07:14:32.198Z,41.20
2023-01-13T07:17:00.922Z,40.53
2023-01-13T07:19:29.524Z,33.72
2023-01-13T07:21:58.157Z,35.92
2023-01-13T07:24:26.550Z,40.95
2023-01-13T07:26:55.249Z,38.95
2023-01-13T07:29:23.942Z,38.33
2023-01-13T07:31:52.426Z,37.65
2023-01-13T07:34:20.731Z,42.25
2023-01-13T07:36:48.953Z,42.17
2023-01-13T07:39:17.468Z,35.72
2023-01-13T07:42:03.897Z,37.97
2023-01-13T07:44:32.220Z,37.08
2023-01-13T07:47:00.845Z,38.42
2023-01-13T07:49:29.806Z,37.05
2023-01-13T07:51:58.076Z,40.53
2023-01-13T07:54:39.635Z,38.38
2023-01-13T07:57:09.233Z,41.08
2023-01-13T07:59:38.210Z,40.17
2023-01-13T08:02:07.020Z,41.42
2023-01-13T08:04:36.349Z,38.70
2023-01-13T08:07:05.815Z,43.17
2023-01-13T08:09:34.654Z,39.08
2023-01-13T08:12:21.794Z,31.95
2023-01-13T08:14:52.231Z,35.78
2023-01-13T08:17:21.018Z,34.15
2023-01-13T08:19:49.479Z,32.35
2023-01-13T08:22:17.822Z,27.05
2023-01-13T08:24:46.495Z,35.30
2023-01-13T08:27:15.169Z,38.08
2023-01-13T08:29:43.856Z,32.65
2023-01-13T08:32:12.566Z,37.30
2023-01-13T08:34:41.159Z,33.58
2023-01-13T08:37:09.959Z,34.70
2023-01-13T08:39:37.967Z,32.83
2023-01-13T08:42:06.319Z,31.25
2023-01-13T08:44:35.204Z,35.97
2023-01-13T08:47:04.230Z,33.95
2023-01-13T08:49:32.843Z,39.38
2023-01-13T08:52:01.554Z,39.10
2023-01-13T08:54:30.082Z,35.58
2023-01-13T08:56:58.836Z,33.47
2023-01-13T08:59:27.480Z,30.13
2023-01-13T09:01:56.387Z,35.67
2023-01-13T09:04:26.677Z,30.58
2023-01-13T09:06:56.285Z,31.75
2023-01-13T09:09:24.863Z,29.80
2023-01-13T09:12:11.264Z,33.10
2023-01-13T09:14:41.192Z,29.15
2023-01-13T09:17:09.657Z,33.35
2023-01-13T09:19:38.431Z,35.78
2023-01-13T09:22:07.065Z,35.95
2023-01-13T09:24:35.744Z,35.40
2023-01-13T09:27:04.444Z,41.08
2023-01-13T09:29:33.104Z,30.67
2023-01-13T09:32:11.591Z,34.78
2023-01-13T09:34:58.639Z,32.65
2023-01-13T09:37:28.853Z,34.75
2023-01-13T09:39:58.007Z,32.55
2023-01-13T09:43:05.325Z,28.77
2023-01-13T09:46:01.725Z,36.92
2023-01-13T09:48:33.343Z,34.00
2023-01-13T09:51:15.892Z,33.65
2023-01-13T09:53:57.242Z,33.63
2023-01-13T09:56:26.401Z,42.35
2023-01-13T09:58:55.388Z,33.95
2023-01-13T10:01:47.958Z,35.30
2023-01-13T10:04:17.551Z,34.17
2023-01-13T10:06:50.238Z,36.28
2023-01-13T10:09:41.219Z,34.93
2023-01-13T10:12:36.251Z,38.42
2023-01-13T10:15:05.596Z,36.22
2023-01-13T10:17:48.199Z,40.88
2023-01-13T10:20:55.496Z,34.28
2023-01-13T10:23:36.543Z,34.78
2023-01-13T10:26:25.493Z,39.70
2023-01-13T10:28:56.257Z,36.20
2023-01-13T10:31:25.633Z,41.92
2023-01-13T10:34:07.471Z,30.95
2023-01-13T10:36:36.225Z,34.45
2023-01-13T10:39:16.733Z,45.10
2023-01-13T10:41:46.022Z,38.20
2023-01-13T10:44:19.469Z,39.10
2023-01-13T10:46:56.753Z,40.05
2023-01-13T10:49:35.221Z,34.28
2023-01-13T10:52:05.258Z,40.65
2023-01-13T10:54:34.163Z,40.85
2023-01-13T10:57:17.427Z,42.20
2023-01-13T10:59:46.046Z,42.17
2023-01-13T11:02:27.007Z,39.53
2023-01-13T11:04:58.317Z,45.97
2023-01-13T11:07:36.325Z,42.72
2023-01-13T11:10:10.861Z,40.42
2023-01-13T11:13:01.084Z,39.42
2023-01-13T11:15:56.742Z,43.83
2023-01-13T11:19:03.591Z,53.42
2023-01-13T11:21:39.103Z,41.63
2023-01-13T11:24:13.599Z,50.65
2023-01-13T11:26:57.376Z,48.10
2023-01-13T11:32:18.600Z,43.58
2023-01-13T11:34:50.098Z,49.60
2023-01-13T11:37:30.481Z,45.95
2023-01-13T11:40:16.474Z,52.03
2023-01-13T11:42:55.940Z,41.35
2023-01-13T11:45:43.269Z,48.92
2023-01-13T11:48:17.849Z,43.88
2023-01-13T11:50:55.235Z,46.55
2023-01-13T11:53:54.312Z,51.10
2023-01-13T11:56:29.641Z,47.67
2023-01-13T11:59:22.816Z,55.13
2023-01-13T12:02:07.088Z,47.00
2023-01-13T12:04:54.836Z,48.50
2023-01-13T12:07:38.096Z,51.13
2023-01-13T12:10:42.437Z,49.90
2023-01-13T12:13:32.095Z,47.10
2023-01-13T12:16:13.488Z,47.88
2023-01-13T12:19:08.428Z,48.08
2023-01-13T12:21:59.773Z,44.42
2023-01-13T12:24:36.309Z,43.25
2023-01-13T12:27:31.769Z,45.63
2023-01-13T12:30:03.772Z,49.03
2023-01-13T12:32:37.906Z,62.08
2023-01-13T12:35:46.816Z,46.33
2023-01-13T12:38:34.366Z,48.80
2023-01-13T12:41:14.871Z,43.85
2023-01-13T12:44:06.318Z,52.83
2023-01-13T12:46:36.442Z,40.97
2023-01-13T12:49:06.109Z,40.60
2023-01-13T12:51:36.716Z,53.50
2023-01-13T12:54:45.749Z,51.70
2023-01-13T12:57:28.261Z,42.63
2023-01-13T13:00:02.385Z,42.17
2023-01-13T13:02:35.193Z,40.50
2023-01-13T13:05:16.040Z,38.85
2023-01-13T13:07:50.941Z,40.20
2023-01-13T13:10:46.016Z,39.42
2023-01-13T13:13:49.982Z,49.65
2023-01-13T13:16:27.700Z,38.17
2023-01-13T13:19:22.696Z,40.45
2023-01-13T13:22:20.363Z,49.10
2023-01-13T13:24:58.864Z,40.45
2023-01-13T13:27:30.367Z,43.40
2023-01-13T13:30:19.787Z,41.55
2023-01-13T13:32:48.896Z,49.55
2023-01-13T13:35:44.438Z,46.05
2023-01-13T13:39:00.373Z,34.97
2023-01-13T13:41:47.911Z,39.30
2023-01-13T13:44:47.202Z,44.35
2023-01-13T13:47:15.989Z,45.65
2023-01-13T13:49:50.919Z,42.97
2023-01-13T13:52:43.055Z,44.92
2023-01-13T13:55:20.371Z,50.53
2023-01-13T13:57:51.713Z,47.03
2023-01-13T14:00:36.518Z,43.85
2023-01-13T14:03:08.712Z,45.92
2023-01-13T14:05:38.312Z,57.28
2023-01-13T14:08:19.550Z,51.33
2023-01-13T14:10:48.378Z,43.67
2023-01-13T14:13:25.015Z,42.38
2023-01-13T14:16:02.130Z,38.40
2023-01-13T14:18:33.629Z,39.42
2023-01-13T14:21:04.621Z,50.33
2023-01-13T14:23:34.977Z,48.60
2023-01-13T14:26:14.204Z,56.40
2023-01-13T14:28:43.261Z,45.58
2023-01-13T14:31:12.472Z,46.05
2023-01-13T14:33:45.711Z,45.47
2023-01-13T14:36:23.205Z,45.95
2023-01-13T14:39:06.948Z,45.75
2023-01-13T14:41:55.124Z,41.17
2023-01-13T14:44:37.760Z,42.28
2023-01-13T14:47:24.946Z,52.30
2023-01-13T14:50:03.723Z,36.50
2023-01-13T14:52:48.857Z,42.00
2023-01-13T14:55:25.655Z,43.03
2023-01-13T14:57:54.424Z,40.85
2023-01-13T15:00:25.546Z,41.78
2023-01-13T15:03:00.649Z,41.47
2023-01-13T15:05:29.483Z,51.50
2023-01-13T15:08:00.311Z,44.63
2023-01-13T15:10:34.599Z,53.95
2023-01-13T15:13:05.258Z,45.78
2023-01-13T15:15:39.362Z,39.22
2023-01-13T15:18:14.842Z,42.55
2023-01-13T15:20:43.758Z,59.53
2023-01-13T15:23:12.782Z,52.88
2023-01-13T15:25:42.678Z,48.35
2023-01-13T15:28:24.132Z,48.58
2023-01-13T15:30:55.313Z,50.53
2023-01-13T15:33:24.596Z,55.00
2023-01-13T15:35:54.649Z,47.85
2023-01-13T15:38:25.121Z,50.35
2023-01-13T15:40:54.838Z,53.58
2023-01-13T15:43:43.488Z,37.85
2023-01-13T15:46:33.660Z,47.13
2023-01-13T15:49:05.146Z,44.67
2023-01-13T15:51:33.451Z,48.15
2023-01-13T15:54:03.897Z,45.90
2023-01-13T15:56:32.713Z,42.00
2023-01-13T15:59:01.537Z,52.30
2023-01-13T16:01:30.121Z,49.40
2023-01-13T16:03:58.841Z,51.10
2023-01-13T16:06:34.320Z,57.53
2023-01-13T16:09:03.727Z,56.97
2023-01-13T16:11:32.459Z,42.83
2023-01-13T16:14:01.539Z,48.45
2023-01-13T16:16:30.968Z,44.92
2023-01-13T16:18:59.649Z,45.65
2023-01-13T16:21:28.308Z,48.58
2023-01-13T16:23:56.946Z,41.58
2023-01-13T16:26:37.530Z,45.60
2023-01-13T16:29:07.384Z,42.22
2023-01-13T16:31:36.309Z,41.33
2023-01-13T16:34:05.476Z,47.50
2023-01-13T16:36:37.565Z,46.80
2023-01-13T16:39:07.384Z,43.97
2023-01-13T16:41:36.051Z,63.78
2023-01-13T16:44:07.325Z,58.47
2023-01-13T16:46:35.926Z,46.40
2023-01-13T16:49:07.222Z,54.70
2023-01-13T16:51:35.566Z,47.38
2023-01-13T16:54:04.187Z,47.08
2023-01-13T16:56:34.415Z,41.20
2023-01-13T16:59:09.027Z,47.00
2023-01-13T17:01:40.852Z,41.25
2023-01-13T17:04:15.963Z,45.40
2023-01-13T17:06:50.264Z,48.40
2023-01-13T17:09:24.990Z,46.50
2023-01-13T17:11:54.088Z,45.13
2023-01-13T17:14:24.714Z,45.28
2023-01-13T17:16:55.311Z,54.00
2023-01-13T17:19:24.597Z,48.70
2023-01-13T17:21:53.298Z,48.47
2023-01-13T17:24:22.191Z,61.65
2023-01-13T17:26:52.808Z,57.28
2023-01-13T17:29:26.605Z,56.15
2023-01-13T17:31:55.285Z,53.28
2023-01-13T17:34:23.829Z,60.13
2023-01-13T17:36:52.581Z,54.28
2023-01-13T17:39:25.008Z,38.28
2023-01-13T17:41:54.770Z,46.13
2023-01-13T17:44:24.711Z,51.40
2023-01-13T17:46:53.410Z,49.03
2023-01-13T17:49:23.185Z,54.38
2023-01-13T17:51:52.831Z,47.47
2023-01-13T17:54:21.942Z,54.55
2023-01-13T17:56:50.761Z,52.05
2023-01-13T17:59:21.269Z,42.00
2023-01-13T18:01:50.175Z,43.08
2023-01-13T18:04:21.686Z,50.90
2023-01-13T18:06:50.222Z,53.35
2023-01-13T18:09:19.369Z,47.90
2023-01-13T18:11:48.193Z,48.10
2023-01-13T18:14:16.698Z,52.25
2023-01-13T18:16:45.432Z,47.88
2023-01-13T18:19:32.311Z,49.60
2023-01-13T18:22:19.239Z,50.95
2023-01-13T18:25:06.512Z,44.33
2023-01-13T18:27:37.022Z,42.60
2023-01-13T18:30:07.554Z,45.78
2023-01-13T18:32:35.702Z,50.20
2023-01-13T18:35:07.352Z,47.55
2023-01-13T18:37:37.149Z,48.25
2023-01-13T18:40:06.191Z,48.95
2023-01-13T18:42:53.131Z,41.40
2023-01-13T18:45:28.109Z,48.65
2023-01-13T18:47:58.227Z,46.13
2023-01-13T18:50:27.336Z,45.78
2023-01-13T18:52:55.948Z,48.45
2023-01-13T18:55:24.819Z,42.58
2023-01-13T18:57:54.488Z,35.85
2023-01-13T19:00:23.763Z,45.60
2023-01-13T19:05:35.993Z,51.30
2023-01-13T19:08:05.816Z,49.53
2023-01-13T19:10:34.558Z,64.72
2023-01-13T19:13:02.917Z,48.28
2023-01-13T19:15:31.909Z,45.22
2023-01-13T19:18:00.808Z,41.15
2023-01-13T19:20:29.396Z,41.85
2023-01-13T19:22:58.025Z,39.47
2023-01-13T19:25:26.598Z,38.92
2023-01-13T19:27:55.253Z,36.88
2023-01-13T19:30:23.939Z,41.20
2023-01-13T19:32:52.691Z,39.20
2023-01-13T19:35:21.294Z,42.00
2023-01-13T19:37:50.385Z,41.30
2023-01-13T19:40:19.218Z,50.58
2023-01-13T19:43:06.117Z,54.08
2023-01-13T19:45:36.523Z,58.78
2023-01-13T19:48:07.032Z,66.35
2023-01-13T19:50:42.005Z,64.57
2023-01-13T19:53:17.474Z,74.05
2023-01-13T19:55:50.583Z,75.57
2023-01-13T19:58:22.458Z,85.82
2023-01-13T20:00:52.154Z,95.18
2023-01-13T20:03:25.479Z,77.68
2023-01-13T20:05:54.909Z,87.93
2023-01-13T20:08:24.439Z,86.60
2023-01-13T20:11:12.984Z,87.97
2023-01-13T20:13:41.521Z,85.30
2023-01-13T20:16:10.594Z,90.28
2023-01-13T20:18:39.409Z,81.20
2023-01-13T20:21:08.885Z,92.72
2023-01-13T20:23:37.659Z,90.30
2023-01-13T20:26:09.427Z,104.47
2023-01-13T20:28:40.777Z,111.90
2023-01-13T20:31:11.529Z,139.23
2023-01-13T20:33:41.749Z,137.05
2023-01-13T20:36:10.396Z,134.80
2023-01-13T20:38:39.347Z,118.43
2023-01-13T20:41:27.291Z,119.30
2023-01-13T20:43:56.040Z,117.82
2023-01-13T20:46:24.861Z,110.40
2023-01-13T20:48:53.587Z,120.85
2023-01-13T20:51:21.974Z,125.18
2023-01-13T20:53:50.945Z,130.43
2023-01-13T20:56:19.755Z,115.43
2023-01-13T20:58:48.427Z,142.00
2023-01-13T21:01:16.997Z,153.50
2023-01-13T21:03:46.027Z,145.38
2023-01-13T21:06:17.222Z,154.52
2023-01-13T21:08:47.699Z,146.65
2023-01-13T21:11:18.076Z,126.07
2023-01-13T21:14:04.911Z,140.20
2023-01-13T21:16:33.577Z,135.10
2023-01-13T21:19:12.029Z,129.98
2023-01-13T21:21:40.393Z,133.00
2023-01-13T21:24:08.988Z,128.13
2023-01-13T21:26:38.819Z,125.65
2023-01-13T21:29:08.095Z,128.35
2023-01-13T21:31:36.698Z,128.30
2023-01-13T21:34:06.427Z,127.28
2023-01-13T21:36:35.091Z,112.28
2023-01-13T21:39:03.628Z,109.13
2023-01-13T21:41:50.804Z,103.15
2023-01-13T21:44:40.125Z,91.65
2023-01-13T21:47:37.823Z,84.43
2023-01-13T21:50:09.879Z,76.40
2023-01-13T21:52:39.063Z,65.90
2023-01-13T21:55:26.275Z,72.75
2023-01-13T21:57:56.183Z,68.00
2023-01-13T22:00:32.816Z,65.50
2023-01-13T22:03:08.198Z,63.42
2023-01-13T22:05:37.331Z,54.17
2023-01-13T22:08:06.733Z,62.17
2023-01-13T22:10:35.619Z,61.75
2023-01-13T22:13:24.241Z,60.88
2023-01-13T22:15:52.613Z,61.38
2023-01-13T22:18:21.199Z,66.38
2023-01-13T22:20:50.573Z,61.65
2023-01-13T22:23:19.257Z,77.72
2023-01-13T22:25:47.770Z,80.95
2023-01-13T22:28:25.259Z,78.82
2023-01-13T22:30:54.527Z,58.97
2023-01-13T22:33:23.416Z,62.70
2023-01-13T22:35:57.356Z,75.07
2023-01-13T22:38:25.988Z,61.85
2023-01-13T22:41:03.418Z,55.00
2023-01-13T22:43:32.959Z,60.17
2023-01-13T22:46:07.726Z,43.97
2023-01-13T22:48:36.466Z,48.20
2023-01-13T22:51:10.449Z,45.38
2023-01-13T22:53:39.732Z,46.10
2023-01-13T22:56:09.243Z,47.13
2023-01-13T22:58:37.704Z,40.42
2023-01-13T23:01:13.961Z,43.67
2023-01-13T23:03:43.293Z,41.95
2023-01-13T23:06:11.862Z,43.60
2023-01-13T23:08:40.160Z,36.58
2023-01-13T23:11:11.135Z,30.95
2023-01-13T23:13:40.769Z,34.13
2023-01-13T23:16:12.180Z,41.08
2023-01-13T23:18:43.882Z,32.92
2023-01-13T23:21:14.707Z,30.38
2023-01-13T23:23:43.384Z,27.88
2023-01-13T23:26:12.525Z,30.38
2023-01-13T23:28:40.986Z,32.55
2023-01-13T23:31:12.257Z,31.85
2023-01-13T23:33:42.620Z,23.20
2023-01-13T23:36:14.452Z,29.48
2023-01-13T23:38:43.760Z,31.67
2023-01-13T23:41:15.989Z,32.72
2023-01-13T23:43:44.870Z,28.20
2023-01-13T23:46:15.303Z,30.10
2023-01-13T23:48:43.914Z,30.25
2023-01-13T23:51:14.557Z,29.98
2023-01-13T23:53:45.730Z,27.45
2023-01-13T23:56:17.239Z,32.83
2023-01-13T23:58:46.633Z,33.17
